Time;durP1;ratioP1;P1;durP2;ratioP2;P2;SDS_P1;SDS_P2;PMS_P1;PMS_P2;Temp;Humidity;BMP_temperature;BMP_pressure;BME280_temperature;BME280_humidity;BME280_pressure;Samples;Min_cycle;Max_cycle;Signal;HPM_P1;HPM_P2
2022/12/17 13:06:34;;;;;;;102.22;45.58;;;0.00;99.90;;;;;;2092014;28;20025;-72
2022/12/17 13:07:35;;;;;;;110.53;47.05;;;0.10;99.90;;;;;;2092457;28;20047;-73
2022/12/17 13:08:36;;;;;;;105.20;47.75;;;0.00;99.90;;;;;;2091950;28;20028;-75
2022/12/17 13:09:53;;;;;;;101.32;45.40;;;0.00;99.90;;;;;;2091771;28;20020;-74
2022/12/17 13:10:54;;;;;;;98.05;44.60;;;0.00;99.90;;;;;;2091085;28;20032;-70
2022/12/17 13:12:03;;;;;;;94.15;44.80;;;-0.10;99.90;;;;;;2106920;28;20095;-74
2022/12/17 13:13:33;;;;;;;109.55;48.17;;;-0.10;99.90;;;;;;2098455;28;20027;-74
2022/12/17 13:14:55;;;;;;;112.63;49.15;;;-0.10;99.90;;;;;;2102246;28;20039;-74
2022/12/17 13:16:02;;;;;;;109.82;48.67;;;-0.10;99.90;;;;;;2100025;28;20017;-76
2022/12/17 13:17:21;;;;;;;96.70;45.20;;;-0.10;99.90;;;;;;2089240;28;20079;-75
2022/12/17 13:18:33;;;;;;;99.00;46.53;;;-0.20;99.90;;;;;;2094370;28;20044;-75
2022/12/17 13:19:37;;;;;;;100.47;45.83;;;-0.20;99.90;;;;;;2097131;28;20474;-75
2022/12/17 13:20:38;;;;;;;99.57;46.63;;;-0.10;99.90;;;;;;2097544;28;20116;-75
2022/12/17 13:21:39;;;;;;;112.65;48.58;;;-0.10;99.90;;;;;;2096995;28;20161;-75
2022/12/17 13:22:49;;;;;;;103.68;47.00;;;-0.10;99.90;;;;;;2096821;28;20700;-75
2022/12/17 13:23:50;;;;;;;109.90;50.03;;;-0.20;99.90;;;;;;2096814;28;20056;-75
2022/12/17 13:25:07;;;;;;;105.20;47.75;;;-0.20;99.90;;;;;;2096127;28;20044;-75
2022/12/17 13:26:17;;;;;;;103.70;47.20;;;-0.20;99.90;;;;;;2095675;28;20024;-75
2022/12/17 13:27:31;;;;;;;100.18;45.92;;;-0.20;99.90;;;;;;2095685;28;20490;-76
2022/12/17 13:28:31;;;;;;;99.28;45.50;;;-0.20;99.90;;;;;;2094788;28;20073;-75
2022/12/17 13:29:36;;;;;;;95.32;45.80;;;-0.30;99.90;;;;;;2096312;28;20036;-74
2022/12/17 13:30:37;;;;;;;82.80;39.42;;;-0.20;99.90;;;;;;2095275;28;20024;-75
2022/12/17 13:31:57;;;;;;;83.13;40.00;;;-0.20;99.90;;;;;;2096590;28;20020;-75
2022/12/17 13:33:01;;;;;;;90.10;41.75;;;-0.20;99.90;;;;;;2097033;28;20075;-75
2022/12/17 13:34:13;;;;;;;98.20;46.13;;;-0.20;99.90;;;;;;2097231;28;20251;-72
2022/12/17 13:35:24;;;;;;;93.97;43.53;;;-0.20;99.90;;;;;;2096449;28;20032;-71
2022/12/17 13:36:31;;;;;;;;;;;-0.20;99.90;;;;;;2096979;28;20085;-71
2022/12/17 13:37:55;;;;;;;83.53;39.97;;;-0.20;99.90;;;;;;2096376;28;20399;-71
2022/12/17 13:39:27;;;;;;;89.22;40.30;;;-0.20;99.90;;;;;;2096534;28;20068;-71
2022/12/17 13:41:15;;;;;;;87.68;40.92;;;-0.20;99.90;;;;;;2095969;28;20036;-69
2022/12/17 13:42:28;;;;;;;78.90;38.05;;;-0.20;99.90;;;;;;2095704;28;20059;-71
2022/12/17 13:43:32;;;;;;;78.05;37.83;;;-0.20;99.90;;;;;;2095328;28;20032;-75
2022/12/17 13:44:44;;;;;;;76.72;37.25;;;-0.20;99.90;;;;;;2094961;28;20039;-73
2022/12/17 13:45:45;;;;;;;75.30;36.45;;;-0.20;99.90;;;;;;2093717;28;20035;-72
2022/12/17 13:46:48;;;;;;;71.20;35.78;;;-0.20;99.90;;;;;;2095774;28;20024;-73
2022/12/17 13:47:57;;;;;;;72.78;36.58;;;-0.30;99.90;;;;;;2094945;28;20090;-74
2022/12/17 13:49:04;;;;;;;73.28;36.10;;;-0.20;99.90;;;;;;2095487;28;20020;-73
2022/12/17 13:50:20;;;;;;;69.78;35.08;;;-0.30;99.90;;;;;;2096168;28;20024;-72
2022/12/17 13:51:22;;;;;;;74.85;37.55;;;-0.30;99.90;;;;;;2096355;28;20430;-75
2022/12/17 13:52:25;;;;;;;75.35;37.85;;;-0.30;99.90;;;;;;2095447;28;20024;-73
2022/12/17 13:53:27;;;;;;;72.03;37.22;;;-0.30;99.90;;;;;;2087635;28;20110;-74
2022/12/17 13:54:28;;;;;;;72.10;36.00;;;-0.30;99.90;;;;;;2095899;28;20052;-73
2022/12/17 13:55:29;;;;;;;71.07;35.58;;;-0.30;99.90;;;;;;2096650;28;20028;-73
2022/12/17 13:56:33;;;;;;;76.78;37.85;;;-0.30;99.90;;;;;;2096131;28;20108;-72
2022/12/17 13:57:36;;;;;;;71.72;36.95;;;-0.30;99.90;;;;;;2095573;28;20036;-71
2022/12/17 13:58:49;;;;;;;76.38;38.70;;;-0.30;99.90;;;;;;2087455;28;20482;-73
2022/12/17 13:59:50;;;;;;;81.20;40.45;;;-0.40;99.90;;;;;;2095425;28;20024;-72
2022/12/17 14:01:02;;;;;;;78.55;40.28;;;-0.40;99.90;;;;;;2093610;28;20043;-74
2022/12/17 14:02:03;;;;;;;77.13;38.83;;;-0.40;99.90;;;;;;2088301;28;20720;-72
2022/12/17 14:03:10;;;;;;;79.63;40.15;;;-0.40;99.90;;;;;;2095230;28;20036;-74
2022/12/17 14:04:20;;;;;;;78.70;38.47;;;-0.30;99.90;;;;;;2086786;28;20033;-73
2022/12/17 14:05:36;;;;;;;76.45;38.47;;;-0.30;99.90;;;;;;2088491;28;20041;-73
2022/12/17 14:06:37;;;;;;;77.38;38.42;;;-0.30;99.90;;;;;;2095013;28;20040;-72
2022/12/17 14:07:39;;;;;;;74.72;37.38;;;-0.30;99.90;;;;;;2095449;28;20028;-72
2022/12/17 14:08:40;;;;;;;75.00;37.72;;;-0.40;99.90;;;;;;2095539;28;20109;-73
2022/12/17 14:09:42;;;;;;;80.60;39.20;;;-0.30;99.90;;;;;;2095748;28;20017;-73
2022/12/17 14:12:25;;;;;;;73.20;35.83;;;-0.30;99.90;;;;;;2092765;28;20031;-73
2022/12/17 14:13:26;;;;;;;74.57;36.60;;;-0.30;99.90;;;;;;2085040;28;20147;-72
2022/12/17 14:14:44;;;;;;;72.63;36.17;;;-0.30;99.90;;;;;;2087010;28;20029;-74
2022/12/17 14:15:51;;;;;;;67.82;34.38;;;-0.40;99.90;;;;;;2081454;28;20025;-72
2022/12/17 14:16:53;;;;;;;75.40;37.38;;;-0.40;99.90;;;;;;2096588;28;20033;-70
2022/12/17 14:17:55;;;;;;;73.15;37.47;;;-0.40;99.90;;;;;;2106030;28;20024;-72
2022/12/17 14:18:58;;;;;;;77.32;37.33;;;-0.50;99.90;;;;;;2096233;28;20120;-69
2022/12/17 14:20:03;;;;;;;66.78;33.30;;;-0.50;99.90;;;;;;2095474;28;20102;-69
2022/12/17 14:21:07;;;;;;;72.93;35.72;;;-0.50;99.90;;;;;;2094902;28;20071;-68
2022/12/17 14:22:17;;;;;;;79.57;39.08;;;-0.50;99.90;;;;;;2095588;28;20115;-68
2022/12/17 14:23:27;;;;;;;84.95;41.05;;;-0.50;99.90;;;;;;2096237;28;20024;-71
2022/12/17 14:24:28;;;;;;;83.88;40.42;;;-0.50;99.90;;;;;;2087394;28;20040;-70
2022/12/17 14:25:34;;;;;;;84.90;40.42;;;-0.50;99.90;;;;;;2087417;28;20025;-70
2022/12/17 14:26:50;;;;;;;82.97;40.13;;;-0.50;99.90;;;;;;2096207;28;20108;-71
2022/12/17 14:27:57;;;;;;;83.72;39.28;;;-0.50;99.90;;;;;;2095394;28;20410;-69
2022/12/17 14:28:58;;;;;;;77.03;38.13;;;-0.50;99.90;;;;;;2101832;28;20544;-70
2022/12/17 14:30:00;;;;;;;75.13;38.28;;;-0.50;99.90;;;;;;2101299;28;20043;-70
2022/12/17 14:31:18;;;;;;;76.40;37.58;;;-0.50;99.90;;;;;;2096983;28;20056;-72
2022/12/17 14:32:34;;;;;;;68.47;35.10;;;-0.50;99.90;;;;;;2096173;28;20028;-70
2022/12/17 14:33:36;;;;;;;69.07;33.47;;;-0.50;99.90;;;;;;2097359;28;20025;-73
2022/12/17 14:34:41;;;;;;;66.30;34.13;;;-0.50;99.90;;;;;;2096892;28;20024;-73
2022/12/17 14:35:50;;;;;;;69.00;35.00;;;-0.50;99.90;;;;;;2097187;28;20112;-72
2022/12/17 14:36:59;;;;;;;71.50;35.85;;;-0.60;99.90;;;;;;2095431;28;20036;-70
2022/12/17 14:38:00;;;;;;;82.32;40.33;;;-0.50;99.90;;;;;;2096288;28;20026;-71
2022/12/17 14:39:09;;;;;;;70.45;35.72;;;-0.50;99.90;;;;;;2095594;28;20051;-73
2022/12/17 14:40:16;;;;;;;71.50;35.10;;;-0.50;99.90;;;;;;2095694;28;20028;-72
2022/12/17 14:42:36;;;;;;;68.53;33.80;;;-0.50;99.90;;;;;;2096103;28;20109;-78
2022/12/17 14:43:37;;;;;;;65.25;32.85;;;-0.50;99.90;;;;;;2096841;28;20045;-70
2022/12/17 14:44:49;;;;;;;67.13;34.03;;;-0.60;99.90;;;;;;2096273;28;20039;-73
2022/12/17 14:47:28;;;;;;;71.55;35.78;;;-0.60;99.90;;;;;;2095767;28;20017;-72
2022/12/17 14:48:59;;;;;;;;;;;-0.60;99.90;;;;;;2096370;28;20028;-73
2022/12/17 14:49:59;;;;;;;70.60;32.55;;;-0.60;99.90;;;;;;2096274;28;19908;-74
2022/12/17 14:51:00;;;;;;;68.05;32.75;;;-0.60;99.90;;;;;;2096529;28;20043;-71
2022/12/17 14:52:12;;;;;;;70.88;33.75;;;-0.60;99.90;;;;;;2095857;28;20024;-71
2022/12/17 14:53:25;;;;;;;64.78;32.70;;;-0.60;99.90;;;;;;2096537;28;20042;-72
2022/12/17 14:54:25;;;;;;;64.43;31.27;;;-0.60;99.90;;;;;;2097860;28;20032;-70
2022/12/17 14:55:38;;;;;;;61.72;31.15;;;-0.60;99.90;;;;;;2098646;28;20531;-74
2022/12/17 14:56:40;;;;;;;60.45;30.63;;;-0.60;99.90;;;;;;2098592;28;20034;-75
2022/12/17 14:57:41;;;;;;;63.60;31.52;;;-0.60;99.90;;;;;;2098301;28;20051;-74
2022/12/17 14:58:45;;;;;;;60.75;31.85;;;-0.60;99.90;;;;;;2097614;28;20041;-73
2022/12/17 14:59:46;;;;;;;63.20;31.25;;;-0.70;99.90;;;;;;2097420;28;20396;-75
2022/12/17 15:00:57;;;;;;;65.45;32.42;;;-0.70;99.90;;;;;;2097300;28;20036;-73
2022/12/17 15:02:18;;;;;;;66.10;32.13;;;-0.70;99.90;;;;;;2097939;28;20459;-73
2022/12/17 15:03:32;;;;;;;65.15;32.20;;;-0.70;99.90;;;;;;2098453;28;20583;-72
2022/12/17 15:04:35;;;;;;;58.75;30.08;;;-0.70;99.90;;;;;;2098194;28;20024;-72
2022/12/17 15:05:36;;;;;;;63.47;30.65;;;-0.70;99.90;;;;;;2097110;28;20029;-71
2022/12/17 15:06:37;;;;;;;57.75;29.83;;;-0.70;99.90;;;;;;2097141;28;20075;-70
2022/12/17 15:07:38;;;;;;;74.45;35.60;;;-0.70;99.90;;;;;;2097938;28;20486;-69
2022/12/17 15:08:41;;;;;;;64.93;34.40;;;-0.70;99.90;;;;;;2098847;28;20039;-71
2022/12/17 15:09:43;;;;;;;64.00;32.22;;;-0.70;99.90;;;;;;2099817;28;20032;-77
2022/12/17 15:10:43;;;;;;;66.38;33.90;;;-0.70;99.90;;;;;;2100730;28;20039;-77
2022/12/17 15:11:44;;;;;;;65.35;32.97;;;-0.70;99.90;;;;;;2092041;28;20564;-76
2022/12/17 15:12:45;;;;;;;64.68;33.05;;;-0.70;99.90;;;;;;2097053;28;20058;-72
2022/12/17 15:13:46;;;;;;;67.63;33.97;;;-0.70;99.90;;;;;;2097896;28;20500;-75
2022/12/17 15:14:47;;;;;;;62.80;31.77;;;-0.70;99.90;;;;;;2097499;28;20023;-73
2022/12/17 15:15:47;;;;;;;61.47;32.15;;;-0.70;99.90;;;;;;2097164;28;20107;-69
2022/12/17 15:16:48;;;;;;;75.20;36.40;;;-0.70;99.90;;;;;;2099083;28;20032;-70
2022/12/17 15:17:49;;;;;;;77.88;37.03;;;-0.70;99.90;;;;;;2097329;28;20111;-69
2022/12/17 15:18:49;;;;;;;71.22;34.20;;;-0.70;99.90;;;;;;2088541;28;20071;-69
2022/12/17 15:19:50;;;;;;;60.40;30.80;;;-0.70;99.90;;;;;;2096891;28;20058;-74
2022/12/17 15:20:51;;;;;;;61.38;29.85;;;-0.80;99.90;;;;;;2097229;28;20040;-72
2022/12/17 15:21:52;;;;;;;61.72;30.73;;;-0.80;99.90;;;;;;2096993;28;20020;-72
2022/12/17 15:22:53;;;;;;;57.10;28.95;;;-0.80;99.90;;;;;;2097274;28;20435;-72
2022/12/17 15:23:53;;;;;;;61.22;29.50;;;-0.80;99.90;;;;;;2097758;28;20029;-72
2022/12/17 15:24:54;;;;;;;62.75;31.67;;;-0.80;99.90;;;;;;2097669;28;20037;-69
2022/12/17 15:25:55;;;;;;;63.10;31.85;;;-0.70;99.90;;;;;;2096749;28;20020;-72
2022/12/17 15:26:56;;;;;;;60.45;31.23;;;-0.70;99.90;;;;;;2088420;28;20329;-71
2022/12/17 15:27:56;;;;;;;60.08;31.98;;;-0.70;99.90;;;;;;2088535;28;20033;-72
2022/12/17 15:28:57;;;;;;;64.20;32.75;;;-0.70;99.90;;;;;;2088232;28;20083;-72
2022/12/17 15:29:58;;;;;;;65.32;33.58;;;-0.70;99.90;;;;;;2088689;28;20112;-72
2022/12/17 15:30:59;;;;;;;60.67;32.28;;;-0.70;99.90;;;;;;2088089;28;20431;-72
2022/12/17 15:31:59;;;;;;;62.53;32.65;;;-0.70;99.90;;;;;;2096357;28;20052;-72
2022/12/17 15:33:02;;;;;;;59.03;30.83;;;-0.70;99.90;;;;;;2097380;28;20496;-70
2022/12/17 15:34:03;;;;;;;59.85;30.88;;;-0.80;99.90;;;;;;2096469;28;20139;-70
2022/12/17 15:35:04;;;;;;;59.85;31.45;;;-0.70;99.90;;;;;;2096494;28;20031;-71
2022/12/17 15:36:05;;;;;;;65.20;33.45;;;-0.70;99.90;;;;;;2096453;28;20084;-71
2022/12/17 15:37:06;;;;;;;64.60;33.53;;;-0.70;99.90;;;;;;2096695;28;20028;-71
2022/12/17 15:38:07;;;;;;;68.30;33.65;;;-0.70;99.90;;;;;;2096991;28;20028;-70
2022/12/17 15:39:09;;;;;;;64.45;32.53;;;-0.70;99.90;;;;;;2097310;28;20028;-73
2022/12/17 15:40:10;;;;;;;62.58;32.80;;;-0.70;99.90;;;;;;2097671;28;20494;-72
2022/12/17 15:43:50;;;;;;;61.13;31.60;;;-0.70;99.90;;;;;;2097219;28;20063;-70
2022/12/17 15:44:51;;;;;;;62.75;32.35;;;-0.70;99.90;;;;;;2097044;28;20021;-70
2022/12/17 15:45:52;;;;;;;62.63;31.83;;;-0.70;99.90;;;;;;2096899;28;20025;-71
2022/12/17 15:46:52;;;;;;;59.63;31.38;;;-0.70;99.90;;;;;;2088170;28;20033;-72
2022/12/17 15:47:53;;;;;;;56.97;29.55;;;-0.80;99.90;;;;;;2088328;28;20021;-73
2022/12/17 15:48:55;;;;;;;58.03;30.75;;;-0.80;99.90;;;;;;2096729;28;20036;-71
2022/12/17 15:49:56;;;;;;;61.90;32.03;;;-0.80;99.90;;;;;;2096572;28;20041;-70
2022/12/17 15:50:56;;;;;;;57.17;30.17;;;-0.80;99.90;;;;;;2096089;28;20470;-72
2022/12/17 15:51:57;;;;;;;57.72;29.83;;;-0.80;99.90;;;;;;2095976;28;20507;-72
2022/12/17 15:52:58;;;;;;;59.55;30.23;;;-0.80;99.90;;;;;;2096679;28;20028;-72
2022/12/17 15:53:59;;;;;;;57.40;30.52;;;-0.80;99.90;;;;;;2096412;28;20021;-75
2022/12/17 15:55:00;;;;;;;59.90;31.20;;;-0.80;99.90;;;;;;2097182;28;20028;-72
2022/12/17 15:56:01;;;;;;;62.63;31.67;;;-0.80;99.90;;;;;;2087800;28;20403;-73
2022/12/17 15:57:02;;;;;;;61.58;31.88;;;-0.80;99.90;;;;;;2088310;28;20061;-71
2022/12/17 15:58:04;;;;;;;61.28;32.05;;;-0.80;99.90;;;;;;2097341;28;20021;-70
2022/12/17 15:59:05;;;;;;;64.28;32.55;;;-0.80;99.90;;;;;;2096172;28;20039;-70
2022/12/17 16:00:06;;;;;;;60.50;31.23;;;-0.80;99.90;;;;;;2096315;28;20025;-72
2022/12/17 16:01:07;;;;;;;60.17;30.83;;;-0.70;99.90;;;;;;2096276;28;20454;-70
2022/12/17 16:02:09;;;;;;;62.42;31.45;;;-0.80;99.90;;;;;;2096362;28;20111;-70
2022/12/17 16:03:10;;;;;;;61.58;31.27;;;-0.80;99.90;;;;;;2096720;28;20074;-71
2022/12/17 16:04:10;;;;;;;64.45;32.35;;;-0.80;99.90;;;;;;2097043;28;20104;-71
2022/12/17 16:05:11;;;;;;;68.05;34.00;;;-0.80;99.90;;;;;;2097097;28;20036;-70
2022/12/17 16:06:12;;;;;;;68.45;33.15;;;-0.90;99.90;;;;;;2087313;28;20108;-70
2022/12/17 16:07:13;;;;;;;61.22;31.77;;;-0.90;99.90;;;;;;2088188;28;20524;-71
2022/12/17 16:08:15;;;;;;;59.67;31.08;;;-0.90;99.90;;;;;;2096300;28;20621;-70
2022/12/17 16:09:16;;;;;;;62.42;32.35;;;-0.90;99.90;;;;;;2096332;28;20052;-71
2022/12/17 16:10:17;;;;;;;64.90;33.47;;;-0.90;99.90;;;;;;2087819;28;20064;-70
2022/12/17 16:11:18;;;;;;;64.80;32.47;;;-1.00;99.90;;;;;;2096319;28;20477;-70
2022/12/17 16:12:18;;;;;;;61.67;31.77;;;-1.00;99.90;;;;;;2096581;28;20032;-70
2022/12/17 16:13:19;;;;;;;64.50;33.05;;;-1.00;99.90;;;;;;2096649;28;20036;-70
2022/12/17 16:14:21;;;;;;;69.22;34.58;;;-1.00;99.90;;;;;;2096865;28;20120;-73
2022/12/17 16:15:21;;;;;;;69.28;34.65;;;-1.10;99.90;;;;;;2096835;28;20033;-70
2022/12/17 16:16:23;;;;;;;66.95;33.58;;;-1.10;99.90;;;;;;2097535;28;20039;-74
2022/12/17 16:17:24;;;;;;;66.32;33.58;;;-1.00;99.90;;;;;;2096475;28;20471;-74
2022/12/17 16:18:24;;;;;;;66.20;34.30;;;-1.10;99.90;;;;;;2087924;28;20041;-73
2022/12/17 16:19:25;;;;;;;72.28;36.67;;;-1.10;99.90;;;;;;2088117;28;20087;-72
2022/12/17 16:20:26;;;;;;;66.45;34.38;;;-1.10;99.90;;;;;;2087665;28;20063;-71
2022/12/17 16:21:27;;;;;;;71.13;35.78;;;-1.10;99.90;;;;;;2088200;28;20033;-71
2022/12/17 16:22:28;;;;;;;64.63;33.95;;;-1.10;99.90;;;;;;2092614;28;20020;-73
2022/12/17 16:23:28;;;;;;;65.03;34.33;;;-1.10;99.90;;;;;;2096142;28;20446;-72
2022/12/17 16:24:29;;;;;;;70.85;34.90;;;-1.10;99.90;;;;;;2096331;28;20035;-75
2022/12/17 16:25:30;;;;;;;67.00;33.17;;;-1.10;99.90;;;;;;2097107;28;20024;-72
2022/12/17 16:26:31;;;;;;;62.83;32.58;;;-1.10;99.90;;;;;;2096182;28;20078;-70
2022/12/17 16:27:31;;;;;;;63.70;32.22;;;-1.10;99.90;;;;;;2096437;28;20032;-73
2022/12/17 16:28:33;;;;;;;63.45;32.25;;;-1.10;99.90;;;;;;2096364;28;20111;-71
2022/12/17 16:29:33;;;;;;;61.85;31.98;;;-1.20;99.90;;;;;;2096041;28;20021;-71
2022/12/17 16:30:34;;;;;;;62.05;31.23;;;-1.10;99.90;;;;;;2095892;28;20973;-72
2022/12/17 16:31:36;;;;;;;61.33;32.22;;;-1.20;99.90;;;;;;2104623;28;20038;-71
2022/12/17 16:32:37;;;;;;;63.47;32.53;;;-1.20;99.90;;;;;;2112478;28;20020;-71
2022/12/17 16:33:40;;;;;;;64.15;32.65;;;-1.30;99.90;;;;;;2096391;28;20833;-74
2022/12/17 16:34:41;;;;;;;62.90;31.35;;;-1.30;99.90;;;;;;2096471;28;20645;-72
2022/12/17 16:35:50;;;;;;;63.13;33.10;;;-1.30;99.90;;;;;;2097089;28;20048;-71
2022/12/17 16:36:51;;;;;;;65.50;33.17;;;-1.30;99.90;;;;;;2097201;28;20206;-73
2022/12/17 16:37:51;;;;;;;68.95;35.10;;;-1.30;99.90;;;;;;2096402;28;20113;-77
2022/12/17 16:38:53;;;;;;;67.00;34.50;;;-1.30;99.90;;;;;;2096534;28;20048;-72
2022/12/17 16:39:54;;;;;;;68.25;33.97;;;-1.30;99.90;;;;;;2088017;28;20673;-71
2022/12/17 16:40:56;;;;;;;63.03;33.85;;;-1.30;99.90;;;;;;2087675;28;20052;-71
2022/12/17 16:41:57;;;;;;;63.15;33.25;;;-1.40;99.90;;;;;;2095436;28;20639;-71
2022/12/17 16:42:57;;;;;;;63.08;32.45;;;-1.40;99.90;;;;;;2096551;28;20033;-71
2022/12/17 16:43:59;;;;;;;63.33;33.28;;;-1.40;99.90;;;;;;2096577;28;20477;-70
2022/12/17 16:45:57;;;;;;;63.95;32.05;;;-1.40;99.90;;;;;;2111608;27;20357;-73
2022/12/17 16:46:57;;;;;;;66.60;33.65;;;-1.40;99.90;;;;;;2111486;28;20031;-72
2022/12/17 16:47:58;;;;;;;61.85;33.10;;;-1.50;99.90;;;;;;2111162;28;20165;-70
2022/12/17 16:49:05;;;;;;;66.13;34.58;;;-1.50;99.90;;;;;;2111654;28;20401;-72
2022/12/17 16:50:06;;;;;;;66.93;33.08;;;-1.50;99.90;;;;;;2111795;28;20094;-72
2022/12/17 16:51:18;;;;;;;62.63;32.60;;;-1.50;99.90;;;;;;2111698;28;20027;-72
2022/12/17 16:52:18;;;;;;;60.63;32.13;;;-1.50;99.90;;;;;;2110773;28;20027;-71
2022/12/17 16:53:19;;;;;;;66.70;33.30;;;-1.60;99.90;;;;;;2109819;28;20024;-72
2022/12/17 16:54:23;;;;;;;65.13;33.10;;;-1.60;99.90;;;;;;2109753;28;20054;-72
2022/12/17 16:55:23;;;;;;;64.90;32.45;;;-1.60;99.90;;;;;;2111736;28;20031;-72
2022/12/17 16:56:26;;;;;;;65.82;33.83;;;-1.60;99.90;;;;;;2111061;28;20020;-73
2022/12/17 16:57:27;;;;;;;66.82;33.60;;;-1.60;99.90;;;;;;2102742;28;20584;-73
2022/12/17 16:58:28;;;;;;;64.68;33.40;;;-1.60;99.90;;;;;;2102566;28;20032;-71
2022/12/17 16:59:29;;;;;;;64.00;33.10;;;-1.60;99.90;;;;;;2110997;28;20024;-71
2022/12/17 17:00:30;;;;;;;63.65;33.50;;;-1.70;99.90;;;;;;2110668;28;20036;-71
2022/12/17 17:01:30;;;;;;;63.17;33.50;;;-1.80;99.90;;;;;;2102580;28;20055;-71
2022/12/17 17:02:31;;;;;;;67.40;35.38;;;-1.80;99.90;;;;;;2110685;28;20142;-71
2022/12/17 17:03:32;;;;;;;69.30;36.88;;;-1.80;99.90;;;;;;2111196;28;20129;-72
2022/12/17 17:04:33;;;;;;;67.78;35.70;;;-1.90;99.90;;;;;;2111479;28;20643;-70
2022/12/17 17:05:37;;;;;;;68.35;35.63;;;-1.90;99.90;;;;;;2111199;28;20027;-69
2022/12/17 17:07:00;;;;;;;72.85;36.05;;;-1.90;99.90;;;;;;2111976;28;20146;-74
2022/12/17 17:08:01;;;;;;;72.57;35.45;;;-2.00;99.90;;;;;;2111918;28;20031;-72
2022/12/17 17:09:03;;;;;;;75.25;36.47;;;-2.00;99.90;;;;;;2111216;28;20031;-74
2022/12/17 17:10:04;;;;;;;73.00;35.47;;;-2.10;99.90;;;;;;2111150;28;20020;-71
2022/12/17 17:11:11;;;;;;;70.05;34.85;;;-2.10;99.90;;;;;;2103422;28;20047;-73
2022/12/17 17:12:12;;;;;;;68.97;34.20;;;-2.10;99.90;;;;;;2093873;28;20033;-72
2022/12/17 17:13:13;;;;;;;68.28;34.70;;;-2.10;99.90;;;;;;2094271;28;20036;-74
2022/12/17 17:14:14;;;;;;;72.97;35.85;;;-2.20;99.90;;;;;;2111166;28;20023;-70
2022/12/17 17:15:15;;;;;;;71.22;35.65;;;-2.20;99.90;;;;;;2102449;28;20406;-71
2022/12/17 17:16:17;;;;;;;68.30;33.78;;;-2.20;99.90;;;;;;2094091;28;20409;-72
2022/12/17 17:17:18;;;;;;;66.93;34.10;;;-2.20;99.90;;;;;;2094485;28;20039;-71
2022/12/17 17:18:18;;;;;;;65.28;33.03;;;-2.30;99.90;;;;;;2086055;28;20518;-74
2022/12/17 17:19:19;;;;;;;67.43;34.28;;;-2.20;99.90;;;;;;2094358;28;20032;-74
2022/12/17 17:20:20;;;;;;;70.35;34.47;;;-2.30;99.90;;;;;;2103480;28;20119;-73
2022/12/17 17:21:37;;;;;;;66.80;33.25;;;-2.30;99.90;;;;;;2103859;28;20025;-73
2022/12/17 17:22:38;;;;;;;68.53;32.92;;;-2.30;99.90;;;;;;2103657;28;20049;-73
2022/12/17 17:23:39;;;;;;;67.35;34.08;;;-2.30;99.90;;;;;;2104964;28;20057;-73
2022/12/17 17:24:41;;;;;;;74.28;37.58;;;-2.40;99.90;;;;;;2103693;28;20031;-73
2022/12/17 17:25:42;;;;;;;86.93;43.25;;;-2.40;99.90;;;;;;2104380;28;20062;-73
2022/12/17 17:26:42;;;;;;;85.85;42.22;;;-2.30;99.90;;;;;;2103908;28;20024;-73
2022/12/17 17:27:43;;;;;;;80.15;40.13;;;-2.30;99.90;;;;;;2100757;28;20032;-73
2022/12/17 17:28:44;;;;;;;77.38;38.65;;;-2.30;99.90;;;;;;2112890;28;20122;-74
2022/12/17 17:29:45;;;;;;;76.32;37.83;;;-2.30;99.90;;;;;;2105612;28;20102;-72
2022/12/17 17:30:46;;;;;;;73.60;37.15;;;-2.30;99.90;;;;;;2104269;28;20065;-72
2022/12/17 17:31:49;;;;;;;76.97;35.88;;;-2.20;99.90;;;;;;2105775;28;20024;-73
2022/12/17 17:32:50;;;;;;;72.38;36.83;;;-2.20;99.90;;;;;;2105335;28;20774;-74
2022/12/17 17:33:51;;;;;;;70.95;35.95;;;-2.10;99.90;;;;;;2105733;28;20058;-71
2022/12/17 17:34:52;;;;;;;69.68;36.00;;;-2.10;99.90;;;;;;2106673;28;20027;-72
2022/12/17 17:35:53;;;;;;;70.35;35.25;;;-2.10;99.90;;;;;;2105875;28;20035;-72
2022/12/17 17:36:53;;;;;;;68.68;35.50;;;-2.10;99.90;;;;;;2106446;28;20059;-71
2022/12/17 17:39:45;;;;;;;69.88;34.35;;;-2.00;99.90;;;;;;2113056;27;20412;-68
2022/12/17 17:40:46;;;;;;;72.38;35.33;;;-2.00;99.90;;;;;;2111537;28;20035;-69
2022/12/17 17:41:47;;;;;;;75.68;37.15;;;-1.90;99.90;;;;;;2111780;28;20120;-69
2022/12/17 17:42:48;;;;;;;73.00;36.75;;;-1.90;99.90;;;;;;2112227;28;20031;-70
2022/12/17 17:43:57;;;;;;;74.30;36.67;;;-1.90;99.90;;;;;;2112008;28;20692;-72
2022/12/17 17:44:58;;;;;;;69.45;36.20;;;-1.90;99.90;;;;;;2104269;28;20506;-68
2022/12/17 17:46:07;;;;;;;82.05;41.90;;;-1.80;99.90;;;;;;2111840;28;20032;-70
2022/12/17 17:47:07;;;;;;;83.57;41.78;;;-1.80;99.90;;;;;;2112556;28;20055;-70
2022/12/17 17:48:08;;;;;;;80.97;40.45;;;-1.70;99.90;;;;;;2112948;28;20035;-69
2022/12/17 17:49:10;;;;;;;77.07;39.42;;;-1.70;99.90;;;;;;2113604;28;20024;-68
2022/12/17 17:50:11;;;;;;;72.57;37.90;;;-1.70;99.90;;;;;;2113651;28;20035;-73
2022/12/17 17:51:19;;;;;;;77.50;39.50;;;-1.70;99.90;;;;;;2113935;28;20541;-71
2022/12/17 17:52:20;;;;;;;76.05;38.50;;;-1.70;99.90;;;;;;2113489;28;20052;-70
2022/12/17 17:53:21;;;;;;;72.05;37.05;;;-1.70;99.90;;;;;;2096683;28;20033;-71
2022/12/17 17:54:24;;;;;;;70.47;36.70;;;-1.70;99.90;;;;;;2104377;28;20024;-71
2022/12/17 17:55:25;;;;;;;71.60;36.95;;;-1.70;99.90;;;;;;2112216;28;20028;-66
2022/12/17 17:56:28;;;;;;;69.32;36.38;;;-1.70;99.90;;;;;;2111435;28;20028;-69
2022/12/17 17:57:31;;;;;;;69.93;36.38;;;-1.70;99.90;;;;;;2111088;28;20085;-68
2022/12/17 17:58:33;;;;;;;75.72;37.63;;;-1.80;99.90;;;;;;2111874;28;20485;-67
2022/12/17 17:59:33;;;;;;;73.95;38.47;;;-1.80;99.90;;;;;;2111613;28;20070;-69
2022/12/17 18:00:36;;;;;;;73.97;37.92;;;-1.80;99.90;;;;;;2111318;28;20135;-70
2022/12/17 18:01:41;;;;;;;73.47;38.72;;;-1.90;99.90;;;;;;2110877;28;20042;-69
2022/12/17 18:02:41;;;;;;;73.32;38.72;;;-1.90;99.90;;;;;;2102410;28;20039;-70
2022/12/17 18:03:42;;;;;;;69.57;37.65;;;-2.00;99.90;;;;;;2103924;28;20112;-73
2022/12/17 18:04:43;;;;;;;75.97;38.72;;;-2.00;99.90;;;;;;2104114;28;20139;-73
2022/12/17 18:05:46;;;;;;;77.68;38.92;;;-1.90;99.90;;;;;;2104027;28;20033;-71
2022/12/17 18:06:47;;;;;;;73.10;37.40;;;-2.00;99.90;;;;;;2103923;28;20030;-69
2022/12/17 18:07:49;;;;;;;71.70;37.80;;;-2.00;99.90;;;;;;2104589;28;20084;-70
2022/12/17 18:08:49;;;;;;;76.47;39.20;;;-2.10;99.90;;;;;;2105031;28;20016;-70
2022/12/17 18:09:50;;;;;;;73.55;38.78;;;-2.10;99.90;;;;;;2105694;28;20028;-71
2022/12/17 18:10:55;;;;;;;74.65;38.67;;;-2.10;99.90;;;;;;2106521;28;20545;-69
2022/12/17 18:13:53;;;;;;;72.25;37.13;;;-2.20;99.90;;;;;;2114221;28;20070;-72
2022/12/17 18:14:37;;;;;;;74.78;35.35;;;-2.30;99.90;;;;;;2105489;28;19919;-70
2022/12/17 18:15:39;;;;;;;69.82;36.90;;;-2.40;99.90;;;;;;2104870;28;20028;-70
2022/12/17 18:16:42;;;;;;;72.40;36.75;;;-2.40;99.90;;;;;;2104030;28;20051;-70
2022/12/17 18:17:45;;;;;;;73.15;38.55;;;-2.50;99.90;;;;;;2104117;28;20144;-70
2022/12/17 18:18:49;;;;;;;74.45;37.83;;;-2.50;99.90;;;;;;2102599;28;20070;-70
2022/12/17 18:19:49;;;;;;;79.15;39.92;;;-2.50;99.90;;;;;;2103445;28;20056;-69
2022/12/17 18:21:01;;;;;;;79.03;41.40;;;-2.60;99.90;;;;;;2111746;28;20024;-70
2022/12/17 18:22:03;;;;;;;83.85;41.70;;;-2.60;99.90;;;;;;2111588;28;20031;-70
2022/12/17 18:23:04;;;;;;;81.65;41.42;;;-2.70;99.90;;;;;;2111970;28;20111;-70
2022/12/17 18:24:15;;;;;;;78.72;41.22;;;-2.70;99.90;;;;;;2111300;28;20042;-70
2022/12/17 18:25:16;;;;;;;82.70;42.30;;;-2.70;99.90;;;;;;2111428;28;20017;-70
2022/12/17 18:26:20;;;;;;;80.25;41.88;;;-2.80;99.90;;;;;;2112060;28;20028;-70
2022/12/17 18:27:21;;;;;;;82.43;42.28;;;-2.80;99.90;;;;;;2111830;28;20034;-69
2022/12/17 18:28:24;;;;;;;81.82;41.72;;;-2.80;99.90;;;;;;2102849;28;20052;-69
2022/12/17 18:29:27;;;;;;;75.60;39.83;;;-2.80;99.90;;;;;;2102182;28;20036;-69
2022/12/17 18:30:36;;;;;;;77.70;39.65;;;-2.90;99.90;;;;;;2102769;28;20032;-69
2022/12/17 18:31:37;;;;;;;74.80;39.17;;;-2.90;99.90;;;;;;2103280;28;20043;-71
2022/12/17 18:32:38;;;;;;;80.43;40.35;;;-2.90;99.90;;;;;;2102546;28;20553;-72
2022/12/17 18:33:42;;;;;;;81.13;39.97;;;-3.00;99.90;;;;;;2094662;28;20036;-70
2022/12/17 18:34:43;;;;;;;78.18;39.85;;;-3.00;99.90;;;;;;2102955;28;20088;-70
2022/12/17 18:35:44;;;;;;;77.07;40.38;;;-3.00;99.90;;;;;;2104121;28;20020;-70
2022/12/17 18:36:48;;;;;;;76.82;40.00;;;-3.00;99.90;;;;;;2103028;28;20059;-71
2022/12/17 18:37:49;;;;;;;87.20;44.20;;;-3.00;99.90;;;;;;2095546;28;20039;-71
2022/12/17 18:39:05;;;;;;;84.30;42.30;;;-3.00;99.90;;;;;;2103261;28;20553;-71
2022/12/17 18:40:06;;;;;;;84.57;42.05;;;-3.00;99.90;;;;;;2095200;28;20037;-71
2022/12/17 18:43:54;;;;;;;80.93;41.05;;;-3.10;99.90;;;;;;2112470;28;20032;-69
2022/12/17 18:44:54;;;;;;;81.70;39.72;;;-3.10;99.90;;;;;;2112547;28;20077;-70